UNI08 WMKJ-WMKJ
Flight info
| Callsign | UNI08 |
|---|---|
| Flight time | 0h 5m |
| Altitude | 1500 |
| Route | WMKJ TO WMKJ / CIRCUITS AND LANDING / POB 02 / ENDURANCE 3 HOURS / 1500FT / |
| Aircraft | DA40/L-VGDW/C |
Departure
| Time | 2026-04-23 15:11 |
|---|---|
| Airport | Senai International Airport (WMKJ) |
Arrival
| Time | 2026-04-23 15:16 |
|---|---|
| Airport | Senai International Airport (WMKJ) |
| Time | Latitude | Longitude | Altitude | Speed | Heading |
|---|---|---|---|---|---|
| 2026-04-23 14:58 | 1.64411 | 103.66502 | 146 ft | 0 kts | 339° |
| 2026-04-23 15:01 | 1.64418 | 103.66498 | 146 ft | 0 kts | 251° |
| 2026-04-23 15:01 | 1.64416 | 103.66497 | 146 ft | 0 kts | 159° |
| 2026-04-23 15:02 | 1.64413 | 103.66499 | 146 ft | 0 kts | 143° |
| 2026-04-23 15:03 | 1.64409 | 103.66507 | 146 ft | 4 kts | 114° |
| 2026-04-23 15:03 | 1.64398 | 103.66524 | 146 ft | 2 kts | 139° |
| 2026-04-23 15:03 | 1.64386 | 103.66530 | 146 ft | 4 kts | 157° |
| 2026-04-23 15:03 | 1.64340 | 103.66548 | 146 ft | 9 kts | 158° |
| 2026-04-23 15:04 | 1.64328 | 103.66553 | 146 ft | 0 kts | 157° |
| 2026-04-23 15:04 | 1.64288 | 103.66571 | 146 ft | 10 kts | 155° |
| 2026-04-23 15:05 | 1.64264 | 103.66582 | 146 ft | 3 kts | 153° |
| 2026-04-23 15:05 | 1.64260 | 103.66584 | 146 ft | 0 kts | 152° |
| 2026-04-23 15:05 | 1.64259 | 103.66584 | 146 ft | 3 kts | 151° |
| 2026-04-23 15:06 | 1.64226 | 103.66617 | 146 ft | 6 kts | 87° |
| 2026-04-23 15:06 | 1.64249 | 103.66688 | 147 ft | 16 kts | 69° |
| 2026-04-23 15:06 | 1.64269 | 103.66739 | 147 ft | 0 kts | 68° |
| 2026-04-23 15:08 | 1.64306 | 103.66755 | 147 ft | 25 kts | 334° |
| 2026-04-23 15:09 | 1.64264 | 103.66755 | 147 ft | 0 kts | 319° |
| 2026-04-23 15:09 | 1.64309 | 103.66848 | 148 ft | 0 kts | 161° |
| 2026-04-23 15:10 | 1.64190 | 103.66893 | 148 ft | 43 kts | 163° |
| 2026-04-23 15:10 | 1.63772 | 103.67050 | 166 ft | 78 kts | 156° |
| 2026-04-23 15:10 | 1.63251 | 103.67255 | 311 ft | 83 kts | 156° |
| 2026-04-23 15:10 | 1.62705 | 103.67486 | 498 ft | 85 kts | 155° |
| 2026-04-23 15:11 | 1.62180 | 103.67727 | 724 ft | 82 kts | 152° |
| 2026-04-23 15:11 | 1.61809 | 103.68104 | 950 ft | 76 kts | 108° |
| 2026-04-23 15:11 | 1.61840 | 103.68613 | 1098 ft | 80 kts | 63° |
| 2026-04-23 15:11 | 1.62312 | 103.69002 | 1152 ft | 97 kts | 20° |
| 2026-04-23 15:12 | 1.63020 | 103.68971 | 1155 ft | 111 kts | 343° |
| 2026-04-23 15:12 | 1.63757 | 103.68636 | 1134 ft | 120 kts | 339° |
| 2026-04-23 15:12 | 1.64489 | 103.68270 | 1136 ft | 116 kts | 335° |
| 2026-04-23 15:12 | 1.65172 | 103.67880 | 1090 ft | 111 kts | 332° |
| 2026-04-23 15:13 | 1.65827 | 103.67484 | 1028 ft | 109 kts | 331° |
| 2026-04-23 15:13 | 1.66456 | 103.67104 | 1048 ft | 102 kts | 334° |
| 2026-04-23 15:13 | 1.67076 | 103.66787 | 1099 ft | 98 kts | 336° |
| 2026-04-23 15:13 | 1.67677 | 103.66509 | 1103 ft | 99 kts | 338° |
| 2026-04-23 15:14 | 1.68319 | 103.66209 | 1017 ft | 101 kts | 336° |
| 2026-04-23 15:14 | 1.68812 | 103.65744 | 920 ft | 96 kts | 300° |
| 2026-04-23 15:14 | 1.68774 | 103.65137 | 781 ft | 95 kts | 219° |
| 2026-04-23 15:14 | 1.68184 | 103.65189 | 702 ft | 91 kts | 138° |
| 2026-04-23 15:15 | 1.67692 | 103.65558 | 632 ft | 88 kts | 147° |
| 2026-04-23 15:15 | 1.67154 | 103.65813 | 543 ft | 85 kts | 158° |
| 2026-04-23 15:15 | 1.66614 | 103.66007 | 496 ft | 79 kts | 156° |
| 2026-04-23 15:15 | 1.66121 | 103.66196 | 373 ft | 76 kts | 158° |
| 2026-04-23 15:16 | 1.65613 | 103.66375 | 237 ft | 78 kts | 159° |
| 2026-04-23 15:16 | 1.65140 | 103.66538 | 158 ft | 65 kts | 158° |
| 2026-04-23 15:16 | 1.64768 | 103.66682 | 148 ft | 48 kts | 159° |
| 2026-04-23 15:16 | 1.64509 | 103.66791 | 147 ft | 37 kts | 160° |
| 2026-04-23 15:17 | 1.64132 | 103.66930 | 156 ft | 75 kts | 161° |
| 2026-04-23 15:17 | 1.63603 | 103.67108 | 296 ft | 82 kts | 157° |
| 2026-04-23 15:17 | 1.63058 | 103.67324 | 478 ft | 84 kts | 154° |
| 2026-04-23 15:17 | 1.62519 | 103.67539 | 706 ft | 84 kts | 159° |
| 2026-04-23 15:18 | 1.62028 | 103.67827 | 923 ft | 81 kts | 128° |
| 2026-04-23 15:18 | 1.61800 | 103.68311 | 1096 ft | 82 kts | 92° |
| 2026-04-23 15:18 | 1.61989 | 103.68907 | 1090 ft | 101 kts | 55° |
| 2026-04-23 15:18 | 1.62568 | 103.69304 | 1071 ft | 103 kts | 18° |
| 2026-04-23 15:19 | 1.63295 | 103.69245 | 1045 ft | 109 kts | 342° |
| 2026-04-23 15:19 | 1.63967 | 103.68945 | 1084 ft | 104 kts | 339° |
| 2026-04-23 15:19 | 1.64627 | 103.68627 | 1065 ft | 106 kts | 337° |
| 2026-04-23 15:19 | 1.65281 | 103.68321 | 1082 ft | 105 kts | 339° |
| 2026-04-23 15:20 | 1.65955 | 103.68034 | 1071 ft | 106 kts | 341° |
| 2026-04-23 15:20 | 1.66645 | 103.67751 | 1019 ft | 106 kts | 341° |
| 2026-04-23 15:20 | 1.67336 | 103.67495 | 952 ft | 107 kts | 341° |
| 2026-04-23 15:20 | 1.67942 | 103.67116 | 866 ft | 98 kts | 313° |
| 2026-04-23 15:21 | 1.68244 | 103.66500 | 729 ft | 102 kts | 283° |
| 2026-04-23 15:21 | 1.68121 | 103.65837 | 654 ft | 99 kts | 232° |
| 2026-04-23 15:21 | 1.67534 | 103.65618 | 617 ft | 95 kts | 161° |
| 2026-04-23 15:21 | 1.66943 | 103.65895 | 537 ft | 94 kts | 161° |
| 2026-04-23 15:22 | 1.66360 | 103.66103 | 456 ft | 83 kts | 155° |
| 2026-04-23 15:22 | 1.65839 | 103.66292 | 314 ft | 77 kts | 158° |
| 2026-04-23 15:22 | 1.65334 | 103.66477 | 180 ft | 75 kts | 158° |
| 2026-04-23 15:22 | 1.64889 | 103.66642 | 148 ft | 62 kts | 155° |
| 2026-04-23 15:23 | 1.64520 | 103.66781 | 147 ft | 48 kts | 163° |
| 2026-04-23 15:23 | 1.64250 | 103.66879 | 148 ft | 41 kts | 161° |
| 2026-04-23 15:23 | 1.63842 | 103.67022 | 147 ft | 81 kts | 162° |
| 2026-04-23 15:23 | 1.63266 | 103.67226 | 255 ft | 89 kts | 157° |
| 2026-04-23 15:24 | 1.62692 | 103.67456 | 403 ft | 92 kts | 156° |
| 2026-04-23 15:24 | 1.62122 | 103.67684 | 643 ft | 86 kts | 155° |
| 2026-04-23 15:24 | 1.61643 | 103.67998 | 863 ft | 80 kts | 122° |
| 2026-04-23 15:24 | 1.61484 | 103.68521 | 1046 ft | 80 kts | 88° |
| 2026-04-23 15:25 | 1.61654 | 103.69062 | 1190 ft | 84 kts | 56° |
| 2026-04-23 15:25 | 1.62172 | 103.69459 | 1132 ft | 104 kts | 21° |
| 2026-04-23 15:25 | 1.62903 | 103.69408 | 1085 ft | 113 kts | 336° |
| 2026-04-23 15:25 | 1.63613 | 103.69105 | 1092 ft | 109 kts | 345° |
| 2026-04-23 15:26 | 1.64339 | 103.68840 | 1049 ft | 111 kts | 342° |
| 2026-04-23 15:26 | 1.65041 | 103.68554 | 1056 ft | 107 kts | 340° |
| 2026-04-23 15:26 | 1.65723 | 103.68277 | 1043 ft | 104 kts | 342° |
| 2026-04-23 15:26 | 1.66407 | 103.68038 | 1019 ft | 103 kts | 346° |
| 2026-04-23 15:27 | 1.67075 | 103.67804 | 1015 ft | 102 kts | 342° |
| 2026-04-23 15:27 | 1.67734 | 103.67544 | 1012 ft | 101 kts | 340° |
| 2026-04-23 15:27 | 1.68384 | 103.67267 | 978 ft | 103 kts | 340° |
| 2026-04-23 15:27 | 1.68987 | 103.66957 | 945 ft | 96 kts | 324° |
| 2026-04-23 15:28 | 1.69343 | 103.66409 | 881 ft | 93 kts | 287° |
| 2026-04-23 15:28 | 1.69360 | 103.65774 | 790 ft | 92 kts | 252° |
| 2026-04-23 15:28 | 1.68980 | 103.65293 | 733 ft | 89 kts | 210° |
| 2026-04-23 15:28 | 1.68400 | 103.65141 | 709 ft | 85 kts | 170° |
| 2026-04-23 15:29 | 1.67887 | 103.65425 | 669 ft | 84 kts | 141° |
| 2026-04-23 15:29 | 1.67368 | 103.65706 | 629 ft | 86 kts | 153° |
| 2026-04-23 15:29 | 1.66817 | 103.65940 | 551 ft | 88 kts | 155° |
| 2026-04-23 15:29 | 1.66240 | 103.66153 | 470 ft | 89 kts | 159° |
| 2026-04-23 15:30 | 1.65663 | 103.66363 | 273 ft | 81 kts | 160° |
| 2026-04-23 15:30 | 1.65181 | 103.66523 | 170 ft | 64 kts | 158° |
| 2026-04-23 15:30 | 1.64826 | 103.66665 | 148 ft | 46 kts | 157° |
| 2026-04-23 15:30 | 1.64800 | 103.66676 | 148 ft | 44 kts | 161° |
| 2026-04-23 15:32 | 1.64760 | 103.66690 | 148 ft | 42 kts | 159° |
| 2026-04-23 15:32 | 1.64598 | 103.66751 | 146 ft | 15 kts | 156° |
| 2026-04-23 15:32 | 1.64422 | 103.66821 | 148 ft | 49 kts | 174° |
| 2026-04-23 15:33 | 1.63981 | 103.66964 | 176 ft | 79 kts | 158° |
| 2026-04-23 15:33 | 1.63447 | 103.67153 | 335 ft | 83 kts | 158° |
| 2026-04-23 15:33 | 1.62908 | 103.67347 | 535 ft | 85 kts | 158° |
| 2026-04-23 15:33 | 1.62370 | 103.67559 | 751 ft | 81 kts | 152° |
| 2026-04-23 15:34 | 1.61954 | 103.67925 | 941 ft | 80 kts | 119° |
| 2026-04-23 15:34 | 1.61837 | 103.68455 | 1114 ft | 79 kts | 81° |
| 2026-04-23 15:34 | 1.62065 | 103.68953 | 1228 ft | 89 kts | 50° |
| 2026-04-23 15:34 | 1.62668 | 103.69279 | 1160 ft | 107 kts | 12° |
| 2026-04-23 15:35 | 1.63422 | 103.69190 | 1107 ft | 113 kts | 340° |
| 2026-04-23 15:35 | 1.64132 | 103.68854 | 1071 ft | 112 kts | 338° |
| 2026-04-23 15:35 | 1.64813 | 103.68520 | 1111 ft | 107 kts | 336° |
| 2026-04-23 15:35 | 1.65467 | 103.68174 | 1126 ft | 106 kts | 335° |
| 2026-04-23 15:36 | 1.66106 | 103.67833 | 1084 ft | 106 kts | 335° |
| 2026-04-23 15:36 | 1.66743 | 103.67436 | 1030 ft | 108 kts | 330° |
| 2026-04-23 15:36 | 1.67389 | 103.67085 | 987 ft | 105 kts | 335° |
| 2026-04-23 15:36 | 1.68031 | 103.66746 | 962 ft | 103 kts | 334° |
| 2026-04-23 15:37 | 1.68660 | 103.66400 | 931 ft | 103 kts | 333° |
| 2026-04-23 15:37 | 1.69189 | 103.65982 | 868 ft | 95 kts | 307° |
| 2026-04-23 15:37 | 1.69367 | 103.65590 | 813 ft | 94 kts | 283° |
| 2026-04-23 15:37 | 1.69070 | 103.64854 | 755 ft | 91 kts | 196° |
| 2026-04-23 15:38 | 1.68523 | 103.65087 | 697 ft | 89 kts | 136° |
| 2026-04-23 15:38 | 1.68051 | 103.65407 | 727 ft | 82 kts | 150° |
| 2026-04-23 15:38 | 1.67523 | 103.65651 | 661 ft | 85 kts | 153° |
| 2026-04-23 15:38 | 1.66988 | 103.65871 | 567 ft | 81 kts | 157° |
| 2026-04-23 15:39 | 1.66471 | 103.66063 | 458 ft | 78 kts | 157° |
| 2026-04-23 15:39 | 1.65972 | 103.66246 | 344 ft | 73 kts | 159° |
| 2026-04-23 15:39 | 1.65502 | 103.66420 | 216 ft | 70 kts | 160° |
| 2026-04-23 15:39 | 1.65072 | 103.66572 | 151 ft | 60 kts | 158° |
| 2026-04-23 15:40 | 1.64746 | 103.66698 | 148 ft | 43 kts | 159° |
| 2026-04-23 15:40 | 1.64484 | 103.66788 | 147 ft | 27 kts | 162° |
| 2026-04-23 15:40 | 1.64339 | 103.66826 | 148 ft | 17 kts | 182° |
| 2026-04-23 15:40 | 1.64272 | 103.66765 | 147 ft | 13 kts | 247° |
| 2026-04-23 15:41 | 1.64265 | 103.66746 | 147 ft | 0 kts | 253° |
| 2026-04-23 15:42 | 1.64264 | 103.66745 | 147 ft | 3 kts | 253° |
| 2026-04-23 15:42 | 1.64233 | 103.66650 | 147 ft | 20 kts | 263° |
| 2026-04-23 15:42 | 1.64266 | 103.66532 | 146 ft | 1 kts | 303° |
| 2026-04-23 15:42 | 1.64268 | 103.66511 | 146 ft | 0 kts | 257° |
| 2026-04-23 15:44 | 1.64267 | 103.66509 | 146 ft | 5 kts | 255° |
| 2026-04-23 15:44 | 1.64259 | 103.66488 | 147 ft | 1 kts | 273° |
| 2026-04-23 15:44 | 1.64272 | 103.66479 | 147 ft | 6 kts | 352° |
| 2026-04-23 15:44 | 1.64303 | 103.66491 | 146 ft | 6 kts | 60° |
| 2026-04-23 15:45 | 1.64301 | 103.66536 | 146 ft | 9 kts | 108° |
| 2026-04-23 15:45 | 1.64279 | 103.66568 | 146 ft | 0 kts | 149° |
| 2026-04-23 15:48 | 1.64277 | 103.66569 | 146 ft | 2 kts | 160° |
| 2026-04-23 15:48 | 1.64275 | 103.66570 | 146 ft | 0 kts | 153° |
| 2026-04-23 15:49 | 1.64256 | 103.66577 | 146 ft | 9 kts | 158° |
| 2026-04-23 15:49 | 1.64227 | 103.66624 | 146 ft | 7 kts | 79° |
| 2026-04-23 15:49 | 1.64243 | 103.66671 | 147 ft | 10 kts | 71° |
| 2026-04-23 15:50 | 1.64265 | 103.66736 | 147 ft | 0 kts | 68° |
| 2026-04-23 15:50 | 1.64270 | 103.66748 | 147 ft | 8 kts | 68° |
| 2026-04-23 15:50 | 1.64288 | 103.66822 | 148 ft | 15 kts | 86° |
| 2026-04-23 15:51 | 1.64267 | 103.66865 | 148 ft | 0 kts | 151° |
| 2026-04-23 15:51 | 1.64185 | 103.66894 | 148 ft | 34 kts | 160° |
| 2026-04-23 15:51 | 1.63813 | 103.67034 | 147 ft | 77 kts | 155° |
| 2026-04-23 15:51 | 1.63248 | 103.67253 | 237 ft | 93 kts | 160° |
| 2026-04-23 15:52 | 1.62637 | 103.67464 | 421 ft | 91 kts | 159° |
| 2026-04-23 15:52 | 1.62014 | 103.67677 | 570 ft | 96 kts | 158° |
| 2026-04-23 15:52 | 1.61413 | 103.67953 | 770 ft | 93 kts | 139° |
| 2026-04-23 15:52 | 1.61117 | 103.68490 | 927 ft | 90 kts | 90° |
| 2026-04-23 15:53 | 1.61392 | 103.69026 | 1107 ft | 90 kts | 41° |
| 2026-04-23 15:53 | 1.62033 | 103.69268 | 1134 ft | 108 kts | 4° |
| 2026-04-23 15:53 | 1.62784 | 103.69084 | 1147 ft | 112 kts | 337° |
| 2026-04-23 15:53 | 1.63505 | 103.68738 | 1083 ft | 114 kts | 339° |
| 2026-04-23 15:54 | 1.64247 | 103.68425 | 1079 ft | 116 kts | 342° |
| 2026-04-23 15:54 | 1.64988 | 103.68175 | 1091 ft | 109 kts | 344° |
| 2026-04-23 15:54 | 1.65708 | 103.67974 | 1040 ft | 105 kts | 349° |
| 2026-04-23 15:54 | 1.66411 | 103.67796 | 1033 ft | 101 kts | 345° |
| 2026-04-23 15:55 | 1.67067 | 103.67547 | 1014 ft | 101 kts | 338° |
| 2026-04-23 15:55 | 1.67679 | 103.67255 | 1049 ft | 96 kts | 339° |
| 2026-04-23 15:55 | 1.68286 | 103.66984 | 1053 ft | 94 kts | 338° |
| 2026-04-23 15:55 | 1.68906 | 103.66718 | 1029 ft | 97 kts | 340° |
| 2026-04-23 15:56 | 1.69388 | 103.66283 | 1006 ft | 92 kts | 299° |
| 2026-04-23 15:56 | 1.69427 | 103.65660 | 909 ft | 91 kts | 246° |
| 2026-04-23 15:56 | 1.69002 | 103.65222 | 785 ft | 90 kts | 199° |
| 2026-04-23 15:56 | 1.68410 | 103.65276 | 666 ft | 85 kts | 151° |
| 2026-04-23 15:57 | 1.67892 | 103.65525 | 565 ft | 81 kts | 155° |
| 2026-04-23 15:57 | 1.67380 | 103.65726 | 487 ft | 80 kts | 156° |
| 2026-04-23 15:57 | 1.66856 | 103.65920 | 430 ft | 81 kts | 156° |
| 2026-04-23 15:57 | 1.66332 | 103.66105 | 386 ft | 83 kts | 158° |
| 2026-04-23 15:58 | 1.65782 | 103.66313 | 260 ft | 87 kts | 159° |
| 2026-04-23 15:58 | 1.65231 | 103.66515 | 159 ft | 77 kts | 158° |
| 2026-04-23 15:58 | 1.64830 | 103.66663 | 148 ft | 50 kts | 160° |
| 2026-04-23 15:58 | 1.64490 | 103.66785 | 147 ft | 67 kts | 159° |
| 2026-04-23 15:59 | 1.63982 | 103.66975 | 226 ft | 84 kts | 157° |
| 2026-04-23 15:59 | 1.63414 | 103.67175 | 374 ft | 88 kts | 160° |
| 2026-04-23 15:59 | 1.62814 | 103.67391 | 473 ft | 98 kts | 158° |
| 2026-04-23 15:59 | 1.62174 | 103.67637 | 613 ft | 100 kts | 156° |
| 2026-04-23 16:00 | 1.61638 | 103.68029 | 795 ft | 94 kts | 120° |
| 2026-04-23 16:00 | 1.61543 | 103.68650 | 974 ft | 91 kts | 77° |
| 2026-04-23 16:00 | 1.61847 | 103.69201 | 1085 ft | 97 kts | 47° |
| 2026-04-23 16:00 | 1.62478 | 103.69514 | 1105 ft | 105 kts | 9° |
| 2026-04-23 16:01 | 1.63206 | 103.69340 | 1097 ft | 113 kts | 340° |
| 2026-04-23 16:01 | 1.63927 | 103.69029 | 1086 ft | 112 kts | 340° |
| 2026-04-23 16:01 | 1.64649 | 103.68747 | 1083 ft | 108 kts | 342° |
| 2026-04-23 16:01 | 1.65326 | 103.68486 | 1103 ft | 100 kts | 342° |
| 2026-04-23 16:02 | 1.65978 | 103.68258 | 1089 ft | 101 kts | 345° |
| 2026-04-23 16:02 | 1.66633 | 103.68027 | 1100 ft | 101 kts | 344° |
| 2026-04-23 16:02 | 1.67291 | 103.67785 | 1057 ft | 103 kts | 342° |
| 2026-04-23 16:02 | 1.67953 | 103.67518 | 1028 ft | 102 kts | 340° |
| 2026-04-23 16:03 | 1.68587 | 103.67255 | 1056 ft | 98 kts | 341° |
| 2026-04-23 16:03 | 1.69219 | 103.67004 | 1071 ft | 98 kts | 341° |
| 2026-04-23 16:03 | 1.69739 | 103.66616 | 1094 ft | 92 kts | 302° |
| 2026-04-23 16:03 | 1.69868 | 103.65984 | 999 ft | 93 kts | 266° |
| 2026-04-23 16:04 | 1.69605 | 103.65424 | 924 ft | 89 kts | 223° |
| 2026-04-23 16:04 | 1.69094 | 103.65117 | 836 ft | 85 kts | 187° |
| 2026-04-23 16:04 | 1.68549 | 103.65267 | 765 ft | 83 kts | 150° |
| 2026-04-23 16:04 | 1.68015 | 103.65500 | 652 ft | 83 kts | 155° |
| 2026-04-23 16:05 | 1.67666 | 103.65643 | 591 ft | 80 kts | 156° |
| 2026-04-23 16:05 | 1.66954 | 103.65887 | 489 ft | 84 kts | 158° |
| 2026-04-23 16:05 | 1.66402 | 103.66087 | 407 ft | 84 kts | 157° |
| 2026-04-23 16:05 | 1.65838 | 103.66291 | 253 ft | 88 kts | 158° |
| 2026-04-23 16:06 | 1.65294 | 103.66489 | 155 ft | 72 kts | 160° |
| 2026-04-23 16:06 | 1.64924 | 103.66628 | 148 ft | 46 kts | 160° |
| 2026-04-23 16:06 | 1.64538 | 103.66765 | 151 ft | 76 kts | 157° |
| 2026-04-23 16:06 | 1.63999 | 103.66972 | 257 ft | 86 kts | 156° |
| 2026-04-23 16:07 | 1.63436 | 103.67184 | 428 ft | 86 kts | 158° |
| 2026-04-23 16:07 | 1.62861 | 103.67393 | 575 ft | 91 kts | 157° |
| 2026-04-23 16:07 | 1.62256 | 103.67661 | 693 ft | 96 kts | 141° |
| 2026-04-23 16:07 | 1.61931 | 103.68214 | 846 ft | 95 kts | 97° |
| 2026-04-23 16:08 | 1.62024 | 103.68861 | 981 ft | 95 kts | 68° |
| 2026-04-23 16:08 | 1.62390 | 103.69401 | 1096 ft | 99 kts | 47° |
| 2026-04-23 16:08 | 1.63003 | 103.69804 | 1057 ft | 109 kts | 20° |
| 2026-04-23 16:08 | 1.63760 | 103.69730 | 1026 ft | 113 kts | 340° |
| 2026-04-23 16:09 | 1.64470 | 103.69427 | 1058 ft | 108 kts | 345° |
| 2026-04-23 16:09 | 1.65150 | 103.69123 | 1050 ft | 105 kts | 336° |
| 2026-04-23 16:09 | 1.65812 | 103.68790 | 1047 ft | 107 kts | 336° |
| 2026-04-23 16:09 | 1.66473 | 103.68466 | 1104 ft | 104 kts | 339° |
| 2026-04-23 16:10 | 1.67162 | 103.68145 | 1108 ft | 111 kts | 338° |
| 2026-04-23 16:10 | 1.67870 | 103.67832 | 1085 ft | 112 kts | 339° |
| 2026-04-23 16:10 | 1.68583 | 103.67513 | 1080 ft | 112 kts | 340° |
| 2026-04-23 16:10 | 1.69187 | 103.67060 | 1015 ft | 105 kts | 303° |
| 2026-04-23 16:11 | 1.69254 | 103.66394 | 942 ft | 97 kts | 249° |
| 2026-04-23 16:11 | 1.68833 | 103.65882 | 807 ft | 95 kts | 210° |
| 2026-04-23 16:11 | 1.68224 | 103.65643 | 668 ft | 94 kts | 197° |
| 2026-04-23 16:11 | 1.67595 | 103.65660 | 532 ft | 90 kts | 161° |
| 2026-04-23 16:12 | 1.67000 | 103.65878 | 390 ft | 91 kts | 158° |
| 2026-04-23 16:12 | 1.66431 | 103.66090 | 395 ft | 88 kts | 160° |
| 2026-04-23 16:12 | 1.65842 | 103.66298 | 266 ft | 90 kts | 161° |
| 2026-04-23 16:12 | 1.65274 | 103.66500 | 160 ft | 78 kts | 161° |
| 2026-04-23 16:13 | 1.64850 | 103.66656 | 148 ft | 55 kts | 162° |
| 2026-04-23 16:13 | 1.64015 | 103.66960 | 219 ft | 83 kts | 159° |
| 2026-04-23 16:13 | 1.63457 | 103.67166 | 365 ft | 87 kts | 158° |
| 2026-04-23 16:14 | 1.62866 | 103.67390 | 485 ft | 94 kts | 158° |
| 2026-04-23 16:14 | 1.62251 | 103.67633 | 661 ft | 94 kts | 152° |
| 2026-04-23 16:14 | 1.61790 | 103.68074 | 827 ft | 94 kts | 113° |
| 2026-04-23 16:14 | 1.61800 | 103.68703 | 987 ft | 95 kts | 68° |
| 2026-04-23 16:15 | 1.62246 | 103.69186 | 1050 ft | 105 kts | 33° |
| 2026-04-23 16:15 | 1.62971 | 103.69250 | 1064 ft | 109 kts | 347° |
| 2026-04-23 16:15 | 1.63680 | 103.68940 | 1051 ft | 111 kts | 340° |
| 2026-04-23 16:15 | 1.64386 | 103.68622 | 1081 ft | 113 kts | 339° |
| 2026-04-23 16:16 | 1.65105 | 103.68308 | 1095 ft | 110 kts | 342° |
| 2026-04-23 16:16 | 1.65810 | 103.68059 | 1095 ft | 106 kts | 345° |
| 2026-04-23 16:16 | 1.66521 | 103.67838 | 1057 ft | 105 kts | 348° |
| 2026-04-23 16:16 | 1.67210 | 103.67643 | 1049 ft | 102 kts | 346° |
| 2026-04-23 16:17 | 1.67880 | 103.67436 | 1040 ft | 100 kts | 345° |
| 2026-04-23 16:17 | 1.68532 | 103.67225 | 1061 ft | 98 kts | 343° |
| 2026-04-23 16:17 | 1.69175 | 103.66986 | 1078 ft | 98 kts | 341° |
| 2026-04-23 16:17 | 1.69636 | 103.66550 | 1061 ft | 92 kts | 301° |
| 2026-04-23 16:18 | 1.69634 | 103.65929 | 957 ft | 93 kts | 244° |
| 2026-04-23 16:18 | 1.69185 | 103.65491 | 854 ft | 90 kts | 205° |
| 2026-04-23 16:18 | 1.68596 | 103.65388 | 764 ft | 85 kts | 169° |
| 2026-04-23 16:18 | 1.68008 | 103.65518 | 652 ft | 87 kts | 161° |
| 2026-04-23 16:19 | 1.67443 | 103.65712 | 567 ft | 86 kts | 159° |
| 2026-04-23 16:19 | 1.66894 | 103.65905 | 487 ft | 86 kts | 159° |
| 2026-04-23 16:19 | 1.66325 | 103.66111 | 364 ft | 87 kts | 158° |
| 2026-04-23 16:19 | 1.65778 | 103.66313 | 264 ft | 81 kts | 160° |
| 2026-04-23 16:20 | 1.65264 | 103.66505 | 157 ft | 68 kts | 160° |
| 2026-04-23 16:20 | 1.64942 | 103.66617 | 148 ft | 45 kts | 160° |
| 2026-04-23 16:21 | 1.64729 | 103.66694 | 147 ft | 35 kts | 160° |
| 2026-04-23 16:21 | 1.64527 | 103.66769 | 147 ft | 27 kts | 159° |
| 2026-04-23 16:21 | 1.64349 | 103.66832 | 148 ft | 29 kts | 169° |
| 2026-04-23 16:21 | 1.64275 | 103.66771 | 147 ft | 5 kts | 264° |
| 2026-04-23 16:22 | 1.64261 | 103.66724 | 147 ft | 9 kts | 249° |
| 2026-04-23 16:22 | 1.64239 | 103.66664 | 147 ft | 9 kts | 252° |
| 2026-04-23 16:22 | 1.64225 | 103.66608 | 146 ft | 3 kts | 285° |
| 2026-04-23 16:22 | 1.64254 | 103.66558 | 146 ft | 14 kts | 303° |
| 2026-04-23 16:23 | 1.64263 | 103.66501 | 146 ft | 0 kts | 249° |
| 2026-04-23 16:25 | 1.64263 | 103.66502 | 146 ft | 0 kts | 249° |
| 2026-04-23 16:31 | 1.64267 | 103.66484 | 147 ft | 7 kts | 59° |
| 2026-04-23 16:32 | 1.64276 | 103.66512 | 146 ft | 10 kts | 87° |